createdAt,value
2023-02-28T00:00:28.706Z,0
2023-02-28T00:03:53.867Z,0
2023-02-28T00:07:19.025Z,0
2023-02-28T00:10:44.208Z,0
2023-02-28T00:14:09.347Z,0
2023-02-28T00:17:34.531Z,0
2023-02-28T00:20:59.705Z,0
2023-02-28T00:24:24.908Z,0
2023-02-28T00:27:50.123Z,0
2023-02-28T00:31:15.394Z,0
2023-02-28T00:34:40.400Z,0
2023-02-28T00:38:05.550Z,0
2023-02-28T00:41:30.902Z,0
2023-02-28T00:44:55.911Z,0
2023-02-28T00:48:21.063Z,0
2023-02-28T00:51:46.225Z,0
2023-02-28T00:55:11.376Z,0
2023-02-28T00:58:36.548Z,0
2023-02-28T01:02:01.721Z,0
2023-02-28T01:05:26.853Z,0
2023-02-28T01:08:52.027Z,0
2023-02-28T01:12:17.192Z,0
2023-02-28T01:15:42.399Z,0
2023-02-28T01:19:07.552Z,0
2023-02-28T01:22:32.698Z,0
2023-02-28T01:25:57.852Z,0
2023-02-28T01:29:22.995Z,0
2023-02-28T01:32:48.164Z,0
2023-02-28T01:36:13.356Z,0
2023-02-28T01:39:38.477Z,0
2023-02-28T01:43:03.625Z,0
2023-02-28T01:46:28.826Z,0
2023-02-28T01:49:53.987Z,0
2023-02-28T01:53:19.190Z,0
2023-02-28T01:56:44.313Z,0
2023-02-28T02:00:09.482Z,0
2023-02-28T02:03:34.621Z,0
2023-02-28T02:06:59.816Z,0
2023-02-28T02:10:25.013Z,0
2023-02-28T02:13:50.128Z,0
2023-02-28T02:17:15.300Z,0
2023-02-28T02:20:40.472Z,0
2023-02-28T02:24:05.632Z,0
2023-02-28T02:27:30.823Z,0
2023-02-28T02:30:55.959Z,0
2023-02-28T02:34:21.136Z,0
2023-02-28T02:37:46.293Z,0
2023-02-28T02:41:11.473Z,0
2023-02-28T02:44:36.639Z,0
2023-02-28T02:48:01.759Z,0
2023-02-28T02:51:27.218Z,0
2023-02-28T02:54:52.077Z,0
2023-02-28T02:58:17.191Z,0
2023-02-28T03:01:42.418Z,0
2023-02-28T03:05:07.557Z,0
2023-02-28T03:08:32.695Z,0
2023-02-28T03:11:57.828Z,0
2023-02-28T03:15:23.026Z,0
2023-02-28T03:18:48.193Z,0
2023-02-28T03:22:13.341Z,0
2023-02-28T03:25:38.509Z,0
2023-02-28T03:29:03.662Z,0
2023-02-28T03:32:28.817Z,0
2023-02-28T03:35:54.100Z,0
2023-02-28T03:39:19.199Z,0
2023-02-28T03:42:44.376Z,0
2023-02-28T03:46:09.577Z,0
2023-02-28T03:49:34.699Z,0
2023-02-28T03:52:59.876Z,0
2023-02-28T03:56:25.014Z,0
2023-02-28T03:59:50.191Z,0
2023-02-28T04:03:15.372Z,0
2023-02-28T04:06:40.570Z,0
2023-02-28T04:10:05.751Z,0
2023-02-28T04:13:30.859Z,0
2023-02-28T04:16:56.017Z,0
2023-02-28T04:20:21.185Z,0
2023-02-28T04:23:46.350Z,0
2023-02-28T04:27:11.537Z,0
2023-02-28T04:30:36.668Z,0
2023-02-28T04:34:01.962Z,0
2023-02-28T04:37:27.228Z,0
2023-02-28T04:40:52.409Z,0
2023-02-28T04:44:18.291Z,0
2023-02-28T04:47:43.407Z,0
2023-02-28T04:51:08.546Z,0
2023-02-28T04:54:33.702Z,0
2023-02-28T04:57:58.898Z,0
2023-02-28T05:01:24.116Z,0
2023-02-28T05:04:49.325Z,0
2023-02-28T05:08:14.435Z,0
2023-02-28T05:11:39.590Z,0
2023-02-28T05:15:04.746Z,0
2023-02-28T05:18:29.987Z,0
2023-02-28T05:21:55.120Z,0
2023-02-28T05:25:20.282Z,0
2023-02-28T05:28:45.459Z,0
2023-02-28T05:32:10.763Z,0
2023-02-28T05:35:35.862Z,1
2023-02-28T05:39:00.973Z,2
2023-02-28T05:42:26.147Z,7
2023-02-28T05:45:51.393Z,6
2023-02-28T05:49:16.471Z,10
2023-02-28T05:52:41.656Z,18
2023-02-28T05:56:06.783Z,27
2023-02-28T05:59:31.959Z,39
2023-02-28T06:02:57.185Z,55
2023-02-28T06:06:22.327Z,71
2023-02-28T06:09:47.528Z,90
2023-02-28T06:13:12.651Z,104
2023-02-28T06:16:37.806Z,122
2023-02-28T06:20:02.971Z,150
2023-02-28T06:23:28.161Z,174
2023-02-28T06:26:53.387Z,198
2023-02-28T06:30:18.499Z,213
2023-02-28T06:33:43.675Z,240
2023-02-28T06:37:08.836Z,288
2023-02-28T06:40:34.039Z,342
2023-02-28T06:43:59.220Z,394
2023-02-28T06:47:24.369Z,460
2023-02-28T06:50:49.568Z,494
2023-02-28T06:54:14.758Z,551
2023-02-28T06:57:40.017Z,619
2023-02-28T07:01:05.229Z,725
2023-02-28T07:04:30.428Z,903
2023-02-28T07:07:55.529Z,1293
2023-02-28T07:11:20.721Z,1352
2023-02-28T07:14:45.874Z,1070
2023-02-28T07:18:11.111Z,1103
2023-02-28T07:21:36.272Z,1156
2023-02-28T07:25:01.446Z,1196
2023-02-28T07:28:26.620Z,1217
2023-02-28T07:31:51.830Z,1269
2023-02-28T07:35:17.006Z,1302
2023-02-28T07:38:42.156Z,1412
2023-02-28T07:42:07.370Z,1426
2023-02-28T07:45:32.611Z,1541
2023-02-28T07:48:57.764Z,1559
2023-02-28T07:52:22.997Z,1506
2023-02-28T07:55:48.212Z,1786
2023-02-28T07:59:13.443Z,1903
2023-02-28T08:02:38.623Z,2022
2023-02-28T08:06:03.788Z,2194
2023-02-28T08:09:28.978Z,2273
2023-02-28T08:12:54.114Z,2457
2023-02-28T08:16:19.322Z,2603
2023-02-28T08:19:44.506Z,2730
2023-02-28T08:23:09.718Z,2840
2023-02-28T08:26:34.909Z,2832
2023-02-28T08:30:00.043Z,2726
2023-02-28T08:33:25.238Z,2635
2023-02-28T08:36:50.398Z,2573
2023-02-28T08:40:15.605Z,2562
2023-02-28T08:43:40.826Z,2568
2023-02-28T08:47:05.954Z,2557
2023-02-28T08:50:31.160Z,2485
2023-02-28T08:53:56.316Z,1010
2023-02-28T08:57:21.502Z,2454
2023-02-28T09:00:46.745Z,2410
2023-02-28T09:04:12.442Z,2403
2023-02-28T09:07:37.151Z,2392
2023-02-28T09:11:03.331Z,2391
2023-02-28T09:14:27.518Z,2311
2023-02-28T09:17:52.724Z,2498
2023-02-28T09:21:17.887Z,2585
2023-02-28T09:24:43.074Z,2708
2023-02-28T09:28:08.274Z,2851
2023-02-28T09:31:33.440Z,2833
2023-02-28T09:34:58.700Z,2932
2023-02-28T09:38:23.832Z,3022
2023-02-28T09:41:49.018Z,2955
2023-02-28T09:45:14.217Z,1342
2023-02-28T09:48:41.078Z,1124
2023-02-28T09:52:04.596Z,1433
2023-02-28T09:55:32.701Z,3473
2023-02-28T09:58:54.897Z,1109
2023-02-28T10:02:20.080Z,2575
2023-02-28T10:05:45.247Z,1662
2023-02-28T10:09:10.441Z,1403
2023-02-28T10:12:35.572Z,3234
2023-02-28T10:16:01.072Z,3430
2023-02-28T10:19:26.141Z,3252
2023-02-28T10:22:51.325Z,3445
2023-02-28T10:26:16.509Z,2512
2023-02-28T10:29:41.673Z,3416
2023-02-28T10:33:06.845Z,3245
2023-02-28T10:36:32.888Z,3317
2023-02-28T10:39:57.185Z,3192
2023-02-28T10:43:22.353Z,3298
2023-02-28T10:46:47.528Z,3365
2023-02-28T10:50:12.673Z,3511
2023-02-28T10:53:48.673Z,3740
2023-02-28T10:57:02.967Z,4046
2023-02-28T11:00:28.190Z,4330
2023-02-28T11:03:53.328Z,4746
2023-02-28T11:07:19.958Z,5080
2023-02-28T11:10:43.633Z,5363
2023-02-28T11:14:08.796Z,5614
2023-02-28T11:17:33.976Z,5770
2023-02-28T11:20:59.119Z,5916
2023-02-28T11:24:24.282Z,5947
2023-02-28T11:27:49.452Z,5955
2023-02-28T11:31:14.697Z,5965
2023-02-28T11:34:39.833Z,5967
2023-02-28T11:38:04.962Z,5919
2023-02-28T11:41:30.528Z,5914
2023-02-28T11:44:55.308Z,5784
2023-02-28T11:48:20.500Z,5668
2023-02-28T11:51:45.692Z,5598
2023-02-28T11:55:10.857Z,5535
2023-02-28T11:58:36.013Z,5440
2023-02-28T12:02:01.233Z,5345
2023-02-28T12:05:26.366Z,5215
2023-02-28T12:08:51.551Z,5069
2023-02-28T12:12:16.928Z,4901
2023-02-28T12:15:42.124Z,4709
2023-02-28T12:19:07.431Z,4524
2023-02-28T12:22:32.620Z,4339
2023-02-28T12:25:57.817Z,4179
2023-02-28T12:29:22.982Z,4010
2023-02-28T12:32:48.226Z,3833
2023-02-28T12:36:13.427Z,3684
2023-02-28T12:39:48.526Z,3554
2023-02-28T12:43:03.805Z,3475
2023-02-28T12:46:29.050Z,3326
2023-02-28T12:49:54.140Z,3296
2023-02-28T12:53:19.327Z,3164
2023-02-28T12:56:44.533Z,3030
2023-02-28T13:00:09.712Z,2944
2023-02-28T13:03:34.912Z,2838
2023-02-28T13:07:00.037Z,2750
2023-02-28T13:10:25.198Z,2675
2023-02-28T13:13:50.344Z,2592
2023-02-28T13:17:15.727Z,2488
2023-02-28T13:20:40.984Z,2382
2023-02-28T13:24:06.328Z,2273
2023-02-28T13:27:31.657Z,2190
2023-02-28T13:30:57.190Z,2039
2023-02-28T13:34:22.416Z,1911
2023-02-28T13:37:47.825Z,1806
2023-02-28T13:41:13.108Z,1748
2023-02-28T13:44:38.515Z,1692
2023-02-28T13:48:03.817Z,1702
2023-02-28T13:51:30.305Z,1645
2023-02-28T13:54:54.433Z,1623
2023-02-28T13:58:20.410Z,1594
2023-02-28T14:01:45.961Z,1547
2023-02-28T14:05:10.733Z,1520
2023-02-28T14:08:36.148Z,1520
2023-02-28T14:12:02.155Z,1517
2023-02-28T14:15:27.861Z,1514
2023-02-28T14:18:53.432Z,1496
2023-02-28T14:22:18.517Z,1499
2023-02-28T14:25:43.894Z,1468
2023-02-28T14:29:09.152Z,1413
2023-02-28T15:04:39.210Z,0
2023-02-28T15:08:04.486Z,995
2023-02-28T15:11:29.991Z,878
2023-02-28T15:14:55.105Z,777
2023-02-28T15:18:20.420Z,747
2023-02-28T15:21:45.725Z,683
2023-02-28T15:25:11.122Z,624
2023-02-28T15:28:36.563Z,586
2023-02-28T15:32:01.945Z,578
2023-02-28T15:35:27.132Z,565
2023-02-28T15:38:52.486Z,539
2023-02-28T15:42:17.792Z,507
2023-02-28T15:45:43.175Z,476
2023-02-28T15:49:08.559Z,460
2023-02-28T15:52:33.901Z,443
2023-02-28T15:55:59.285Z,421
2023-02-28T15:59:24.595Z,401
2023-02-28T16:02:50.757Z,380
2023-02-28T16:06:15.968Z,360
2023-02-28T16:09:41.288Z,342
2023-02-28T16:13:06.588Z,322
2023-02-28T16:16:31.895Z,307
2023-02-28T16:19:57.331Z,292
2023-02-28T16:23:23.398Z,271
2023-02-28T16:26:48.686Z,253
2023-02-28T16:30:14.028Z,232
2023-02-28T16:33:39.421Z,203
2023-02-28T16:37:04.728Z,168
2023-02-28T16:40:30.089Z,131
2023-02-28T16:43:55.740Z,99
2023-02-28T16:47:21.070Z,73
2023-02-28T16:50:47.252Z,55
2023-02-28T16:54:12.571Z,39
2023-02-28T16:57:37.855Z,25
2023-02-28T17:01:03.185Z,17
2023-02-28T17:04:28.447Z,10
2023-02-28T17:07:53.716Z,6
2023-02-28T17:11:19.040Z,3
2023-02-28T17:14:44.314Z,2
2023-02-28T17:18:09.599Z,2
2023-02-28T17:21:34.942Z,1
2023-02-28T17:25:00.199Z,1
2023-02-28T17:28:25.495Z,0
2023-02-28T17:31:50.830Z,0
2023-02-28T17:35:16.079Z,0
2023-02-28T17:38:41.432Z,0
2023-02-28T17:42:06.683Z,0
2023-02-28T17:45:31.954Z,0
2023-02-28T17:48:57.218Z,0
2023-02-28T17:52:22.548Z,0
2023-02-28T17:55:47.864Z,0
2023-02-28T17:59:13.176Z,0
2023-02-28T18:02:38.622Z,0
2023-02-28T18:06:03.948Z,0
2023-02-28T18:09:29.317Z,0
2023-02-28T18:12:54.705Z,0
2023-02-28T18:16:20.094Z,0
2023-02-28T18:19:45.421Z,0
2023-02-28T18:23:10.795Z,0
2023-02-28T18:26:36.184Z,0
2023-02-28T18:30:01.586Z,0
2023-02-28T18:33:26.993Z,0
2023-02-28T18:36:52.318Z,0
2023-02-28T18:40:17.598Z,0
2023-02-28T18:43:42.924Z,0
2023-02-28T18:47:08.270Z,0
2023-02-28T18:50:33.592Z,0
2023-02-28T18:53:58.845Z,0
2023-02-28T18:57:24.180Z,0
2023-02-28T19:00:49.563Z,0
2023-02-28T19:04:14.855Z,0
2023-02-28T19:07:40.113Z,0
2023-02-28T19:11:05.452Z,0
2023-02-28T19:14:30.750Z,0
2023-02-28T19:17:56.057Z,0
2023-02-28T19:21:21.420Z,0
2023-02-28T19:24:46.691Z,0
2023-02-28T19:28:12.009Z,0
2023-02-28T19:31:37.366Z,0
2023-02-28T19:35:02.676Z,0
2023-02-28T19:38:27.941Z,0
2023-02-28T19:41:53.221Z,0
2023-02-28T19:45:18.508Z,0
2023-02-28T19:48:43.788Z,0
2023-02-28T19:52:11.635Z,0
2023-02-28T19:55:34.401Z,0
2023-02-28T19:58:59.671Z,0
2023-02-28T20:02:24.966Z,0
2023-02-28T20:05:50.305Z,0
2023-02-28T20:09:15.626Z,0
2023-02-28T20:12:41.017Z,0
2023-02-28T20:16:06.286Z,0
2023-02-28T20:19:31.639Z,0
2023-02-28T20:22:57.820Z,0
2023-02-28T20:26:23.138Z,0
2023-02-28T20:29:48.488Z,0
2023-02-28T20:33:13.851Z,0
2023-02-28T20:36:39.109Z,0
2023-02-28T20:40:04.425Z,0
2023-02-28T20:43:29.707Z,0
2023-02-28T20:46:55.043Z,0
2023-02-28T20:50:20.310Z,0
2023-02-28T20:53:45.643Z,0
2023-02-28T20:57:10.928Z,0
2023-02-28T21:00:36.142Z,0
2023-02-28T21:04:01.347Z,0
2023-02-28T21:07:26.476Z,0
2023-02-28T21:10:51.650Z,0
2023-02-28T21:14:16.793Z,0
2023-02-28T21:17:41.980Z,0
2023-02-28T21:21:07.190Z,0
2023-02-28T21:24:32.332Z,0
2023-02-28T21:27:57.508Z,0
2023-02-28T21:31:22.801Z,0
2023-02-28T21:34:48.518Z,0
2023-02-28T21:38:13.711Z,0
2023-02-28T21:41:38.823Z,0
2023-02-28T21:45:03.975Z,0
2023-02-28T21:48:29.149Z,0
2023-02-28T21:51:54.339Z,0
2023-02-28T21:55:19.529Z,0
2023-02-28T21:58:44.674Z,0
2023-02-28T22:02:09.821Z,0
2023-02-28T22:05:34.963Z,0
2023-02-28T22:09:00.145Z,0
2023-02-28T22:12:25.315Z,0
2023-02-28T22:15:50.449Z,0
2023-02-28T22:19:15.594Z,0
2023-02-28T22:22:40.829Z,0
2023-02-28T22:26:05.996Z,0
2023-02-28T22:29:31.192Z,0
2023-02-28T22:32:56.380Z,0
2023-02-28T22:36:21.524Z,0
2023-02-28T22:39:46.678Z,0
2023-02-28T22:43:11.856Z,0
2023-02-28T22:46:37.151Z,0
2023-02-28T22:50:02.172Z,0
2023-02-28T22:53:27.339Z,0
2023-02-28T22:56:52.491Z,0
2023-02-28T23:00:17.646Z,0
2023-02-28T23:03:42.899Z,0
2023-02-28T23:07:07.990Z,0
2023-02-28T23:10:33.196Z,0
2023-02-28T23:13:58.564Z,0
2023-02-28T23:17:23.539Z,0
2023-02-28T23:20:48.701Z,0
2023-02-28T23:24:13.836Z,0
2023-02-28T23:27:38.987Z,0
2023-02-28T23:31:04.153Z,0
2023-02-28T23:34:29.336Z,0
2023-02-28T23:37:54.534Z,0
2023-02-28T23:41:19.649Z,0
2023-02-28T23:44:44.839Z,0
2023-02-28T23:48:10.028Z,0
2023-02-28T23:51:35.204Z,0
2023-02-28T23:55:00.377Z,0
2023-02-28T23:58:25.534Z,0
